Time;durP1;ratioP1;P1;durP2;ratioP2;P2;SDS_P1;SDS_P2;PMS_P1;PMS_P2;Temp;Humidity;BMP_temperature;BMP_pressure;BME280_temperature;BME280_humidity;BME280_pressure;Samples;Min_cycle;Max_cycle;Signal;HPM_P1;HPM_P2
2021/11/19 00:00:25;;;;;;;33.33;19.42;;;;;;;9.48;100.00;102516.81;5023588;28;20136;-74
2021/11/19 00:02:51;;;;;;;45.88;20.02;;;;;;;9.44;100.00;102514.13;5019007;28;20052;-73
2021/11/19 00:05:18;;;;;;;43.80;21.33;;;;;;;9.42;100.00;102511.53;5024020;28;20056;-74
2021/11/19 00:07:45;;;;;;;42.15;17.92;;;;;;;9.44;100.00;102511.53;5018289;28;20057;-74
2021/11/19 00:10:14;;;;;;;45.95;21.40;;;;;;;9.43;100.00;102502.88;5025589;28;20045;-74
2021/11/19 00:12:40;;;;;;;40.58;22.00;;;;;;;9.40;100.00;102500.25;5021641;28;20569;-72
2021/11/19 00:15:10;;;;;;;38.53;19.13;;;;;;;9.36;100.00;102506.25;5021410;28;20522;-70
2021/11/19 00:17:37;;;;;;;36.92;17.60;;;;;;;9.39;100.00;102489.84;5026206;28;20053;-73
2021/11/19 00:20:05;;;;;;;38.10;17.88;;;;;;;9.42;100.00;102497.69;5022819;28;20106;-74
2021/11/19 00:22:31;;;;;;;35.08;17.45;;;;;;;9.41;100.00;102502.00;5015462;28;20056;-74
2021/11/19 00:24:58;;;;;;;32.15;16.38;;;;;;;9.42;100.00;102506.34;5040797;22;20053;-76
2021/11/19 00:27:26;;;;;;;39.38;16.23;;;;;;;9.40;100.00;102499.38;5014310;28;20054;-75
2021/11/19 00:29:53;;;;;;;34.35;16.23;;;;;;;9.33;100.00;102496.69;5018243;28;20136;-76
2021/11/19 00:32:20;;;;;;;34.05;16.08;;;;;;;9.27;100.00;102494.00;5020434;28;20045;-75
2021/11/19 00:34:48;;;;;;;39.53;16.23;;;;;;;9.23;100.00;102489.63;5021884;28;20052;-76
2021/11/19 00:37:15;;;;;;;36.85;14.73;;;;;;;9.34;100.00;102488.03;5019482;28;20556;-76
2021/11/19 00:39:42;;;;;;;36.50;14.65;;;;;;;9.26;100.00;102488.81;5018001;28;20099;-76
2021/11/19 00:42:10;;;;;;;47.40;15.93;;;;;;;9.26;100.00;102487.06;5025204;28;20049;-74
2021/11/19 00:44:39;;;;;;;38.45;15.45;;;;;;;9.21;100.00;102493.03;5020259;28;20084;-75
2021/11/19 00:47:07;;;;;;;42.60;15.32;;;;;;;9.24;100.00;102496.53;5021514;28;20045;-75
2021/11/19 00:49:38;;;;;;;30.95;14.68;;;;;;;9.27;100.00;102503.53;5017858;28;20513;-75
2021/11/19 00:52:07;;;;;;;40.00;15.45;;;;;;;9.22;100.00;102500.88;5018252;28;20049;-75
2021/11/19 00:54:33;;;;;;;37.72;14.75;;;;;;;9.21;100.00;102509.50;5016236;28;20564;-75
2021/11/19 00:57:04;;;;;;;42.45;15.65;;;;;;;9.17;100.00;102515.47;5014058;28;20124;-75
2021/11/19 00:59:32;;;;;;;38.28;15.70;;;;;;;9.18;100.00;102517.22;5018819;28;20480;-76
2021/11/19 01:02:04;;;;;;;36.53;17.00;;;;;;;9.21;100.00;102506.91;5019305;28;20113;-75
2021/11/19 01:04:32;;;;;;;39.75;15.73;;;;;;;9.20;100.00;102506.88;5016681;28;20050;-75
2021/11/19 01:06:59;;;;;;;47.47;17.58;;;;;;;9.17;100.00;102506.00;5015317;28;20056;-75
2021/11/19 01:09:28;;;;;;;38.45;17.52;;;;;;;9.25;100.00;102508.69;5019465;28;20045;-75
2021/11/19 01:11:56;;;;;;;33.30;17.15;;;;;;;9.29;100.00;102507.00;5020582;28;20053;-75
2021/11/19 01:14:26;;;;;;;36.80;17.88;;;;;;;9.28;100.00;102508.75;5016941;28;20052;-77
2021/11/19 01:16:56;;;;;;;37.78;18.75;;;;;;;9.34;100.00;102513.16;5021368;28;20057;-75
2021/11/19 01:19:26;;;;;;;41.88;19.02;;;;;;;9.30;100.00;102503.56;5023957;28;20038;-75
2021/11/19 01:21:56;;;;;;;43.35;21.00;;;;;;;9.31;100.00;102507.91;5020171;28;20045;-75
2021/11/19 01:24:24;;;;;;;39.42;20.10;;;;;;;9.32;100.00;102507.94;5023800;28;20104;-75
2021/11/19 01:26:51;;;;;;;39.97;18.95;;;;;;;9.33;100.00;102504.47;5018901;28;20050;-75
2021/11/19 01:29:19;;;;;;;43.22;18.60;;;;;;;9.40;100.00;102507.16;5019392;28;20064;-75
2021/11/19 01:31:48;;;;;;;39.88;20.80;;;;;;;9.32;100.00;102509.66;5013175;28;20057;-75
2021/11/19 01:34:15;;;;;;;46.63;20.73;;;;;;;9.30;100.00;102517.44;5019660;28;20419;-75
2021/11/19 01:36:44;;;;;;;37.97;20.45;;;;;;;9.34;100.00;102519.19;5016160;28;20049;-76
2021/11/19 01:39:13;;;;;;;48.08;21.85;;;;;;;9.26;100.00;102519.97;5016421;28;20042;-76
2021/11/19 01:41:42;;;;;;;45.72;20.88;;;;;;;9.31;100.00;102524.38;5019861;28;20056;-75
2021/11/19 01:44:18;;;;;;;41.42;21.98;;;;;;;9.32;100.00;102526.13;5019150;28;20048;-75
2021/11/19 01:46:51;;;;;;;42.70;22.25;;;;;;;9.18;100.00;102518.09;5018998;28;20107;-76
2021/11/19 01:49:18;;;;;;;46.72;21.80;;;;;;;9.12;100.00;102528.41;5022830;28;20046;-76
2021/11/19 01:51:51;;;;;;;38.72;21.15;;;;;;;9.27;100.00;102530.34;5019810;28;20479;-75
2021/11/19 01:54:21;;;;;;;43.47;21.38;;;;;;;9.18;100.00;102527.63;5018950;28;20050;-76
2021/11/19 01:56:52;;;;;;;46.25;21.83;;;;;;;9.14;100.00;102531.00;5017299;28;20137;-76
2021/11/19 01:59:23;;;;;;;41.55;21.48;;;;;;;9.29;100.00;102530.38;5021662;28;20133;-77
2021/11/19 02:01:53;;;;;;;48.53;23.35;;;;;;;9.30;100.00;102533.00;5020120;28;20054;-76
2021/11/19 02:04:27;;;;;;;49.15;21.77;;;;;;;9.30;100.00;102530.41;5011074;28;20056;-74
2021/11/19 02:06:59;;;;;;;42.53;20.87;;;;;;;9.23;100.00;102527.69;5011984;28;20510;-75
2021/11/19 02:09:34;;;;;;;45.50;22.60;;;;;;;9.26;100.00;102528.59;5022889;28;20052;-75
2021/11/19 02:12:13;;;;;;;50.95;22.60;;;;;;;9.16;100.00;102530.22;5023614;28;20045;-76
2021/11/19 02:14:48;;;;;;;39.72;22.88;;;;;;;9.23;100.00;102530.28;5013816;28;20045;-75
2021/11/19 02:17:15;;;;;;;50.00;23.42;;;;;;;9.13;100.00;102524.09;5020366;28;20056;-76
2021/11/19 02:19:45;;;;;;;53.92;24.17;;;;;;;9.08;100.00;102521.44;5019859;28;20045;-76
2021/11/19 02:22:17;;;;;;;46.88;23.70;;;;;;;9.10;100.00;102524.91;5013041;28;20042;-76
2021/11/19 02:24:47;;;;;;;42.92;23.58;;;;;;;9.13;100.00;102524.09;5019276;28;20049;-76
2021/11/19 02:27:23;;;;;;;46.50;23.60;;;;;;;9.24;100.00;102522.50;5021795;28;20046;-76
2021/11/19 02:29:53;;;;;;;47.67;23.40;;;;;;;9.29;100.00;102517.38;5017991;28;20045;-76
2021/11/19 02:32:24;;;;;;;50.13;23.02;;;;;;;9.29;100.00;102509.59;5017641;28;20054;-76
2021/11/19 02:34:51;;;;;;;41.97;21.17;;;;;;;9.25;100.00;102508.69;5015824;28;20054;-76
2021/11/19 02:37:25;;;;;;;45.97;22.77;;;;;;;9.29;100.00;102510.50;5010610;28;20116;-76
2021/11/19 02:39:56;;;;;;;43.10;22.50;;;;;;;9.26;100.00;102514.75;5017867;28;20052;-75
2021/11/19 02:42:25;;;;;;;43.08;22.33;;;;;;;9.27;100.00;102509.59;5020927;28;20104;-75
2021/11/19 02:44:54;;;;;;;42.17;22.08;;;;;;;9.25;100.00;102513.00;5028721;28;20057;-76
2021/11/19 02:47:24;;;;;;;49.30;23.33;;;;;;;9.25;100.00;102518.22;5013507;28;20530;-76
2021/11/19 02:49:52;;;;;;;44.33;23.92;;;;;;;9.24;100.00;102516.47;5021245;28;20053;-74
2021/11/19 02:52:23;;;;;;;44.17;23.48;;;;;;;9.15;100.00;102510.28;5013706;28;20038;-75
2021/11/19 02:54:50;;;;;;;42.55;22.63;;;;;;;9.19;100.00;102506.00;5019021;28;20054;-75
2021/11/19 02:57:17;;;;;;;46.22;22.60;;;;;;;9.16;100.00;102501.66;5023555;28;20754;-75
2021/11/19 02:59:45;;;;;;;41.53;23.38;;;;;;;9.17;100.00;102500.81;5020988;28;20630;-75
2021/11/19 03:02:15;;;;;;;45.80;23.08;;;;;;;9.21;100.00;102499.13;5020087;28;20045;-75
2021/11/19 03:04:45;;;;;;;53.13;22.88;;;;;;;9.16;100.00;102498.16;5019119;28;20049;-75
2021/11/19 03:07:12;;;;;;;42.22;23.10;;;;;;;9.24;100.00;102493.94;5016814;28;20889;-76
2021/11/19 03:09:43;;;;;;;43.97;22.92;;;;;;;9.24;100.00;102495.69;5021944;28;20051;-76
2021/11/19 03:12:14;;;;;;;44.28;23.92;;;;;;;9.24;100.00;102491.34;5019229;28;20049;-75
2021/11/19 03:14:40;;;;;;;52.83;23.65;;;;;;;9.11;100.00;102492.03;5023755;28;20072;-75
2021/11/19 03:17:10;;;;;;;39.60;23.33;;;;;;;9.12;100.00;102486.00;5021706;28;20056;-76
2021/11/19 03:19:37;;;;;;;48.60;24.45;;;;;;;9.22;100.00;102482.69;5018140;28;20045;-76
2021/11/19 03:22:05;;;;;;;44.65;24.77;;;;;;;9.25;100.00;102485.31;5019254;28;20531;-77
2021/11/19 03:24:32;;;;;;;49.38;24.17;;;;;;;9.24;100.00;102477.50;5017515;28;20062;-76
2021/11/19 03:27:00;;;;;;;44.58;22.92;;;;;;;9.26;100.00;102479.28;5021188;28;20053;-76
2021/11/19 03:29:28;;;;;;;42.58;23.38;;;;;;;9.21;100.00;102477.47;5021622;28;20406;-76
2021/11/19 03:31:55;;;;;;;47.65;23.13;;;;;;;9.24;100.00;102477.50;5019188;28;20526;-76
2021/11/19 03:34:23;;;;;;;42.50;23.75;;;;;;;9.21;100.00;102486.13;5018943;28;20049;-76
2021/11/19 03:36:52;;;;;;;47.97;24.70;;;;;;;9.29;100.00;102494.00;5022758;28;20057;-76
2021/11/19 03:39:22;;;;;;;42.55;22.40;;;;;;;9.27;100.00;102494.00;5027059;28;20084;-75
2021/11/19 03:41:49;;;;;;;44.97;23.02;;;;;;;9.22;100.00;102492.19;5018877;28;20046;-76
2021/11/19 03:44:21;;;;;;;45.97;23.15;;;;;;;9.28;100.00;102493.16;5021995;28;20136;-75
2021/11/19 03:46:52;;;;;;;50.65;24.00;;;;;;;9.21;100.00;102493.94;5022571;28;20053;-76
2021/11/19 03:49:20;;;;;;;40.78;22.42;;;;;;;9.19;100.00;102498.22;5025226;28;20042;-75
2021/11/19 03:51:51;;;;;;;50.35;24.05;;;;;;;9.24;100.00;102495.69;5024826;28;20049;-75
2021/11/19 03:54:20;;;;;;;43.25;23.83;;;;;;;9.19;100.00;102490.44;5027517;28;20099;-75
2021/11/19 03:56:48;;;;;;;50.67;23.90;;;;;;;9.18;100.00;102492.13;5026464;28;20060;-75
2021/11/19 03:59:15;;;;;;;41.47;22.75;;;;;;;9.23;100.00;102494.81;5023881;28;20780;-75
2021/11/19 04:01:46;;;;;;;44.15;24.27;;;;;;;9.22;100.00;102500.88;5025339;28;20466;-75
2021/11/19 04:04:15;;;;;;;42.97;24.38;;;;;;;9.23;100.00;102497.44;5021461;28;20061;-75
2021/11/19 04:06:42;;;;;;;45.90;23.50;;;;;;;9.23;100.00;102497.44;5016000;28;20442;-75
2021/11/19 04:09:09;;;;;;;48.67;24.13;;;;;;;9.25;100.00;102494.84;5020211;28;20042;-75
2021/11/19 04:11:36;;;;;;;46.58;24.48;;;;;;;9.25;100.00;102490.50;5025150;28;20084;-75
2021/11/19 04:14:03;;;;;;;44.30;24.60;;;;;;;9.23;100.00;102505.22;5028872;28;20045;-75
2021/11/19 04:16:31;;;;;;;50.47;23.65;;;;;;;9.24;100.00;102490.50;5022210;28;20431;-75
2021/11/19 04:19:01;;;;;;;46.33;25.52;;;;;;;9.22;100.00;102495.69;5024138;28;20365;-75
2021/11/19 04:21:29;;;;;;;47.30;25.27;;;;;;;9.28;100.00;102495.75;5020026;28;20045;-76
2021/11/19 04:23:57;;;;;;;44.63;24.67;;;;;;;9.23;100.00;102494.81;5021766;28;20073;-75
2021/11/19 04:26:26;;;;;;;49.85;25.60;;;;;;;9.29;100.00;102500.09;5021092;28;20523;-75
2021/11/19 04:28:53;;;;;;;44.67;25.40;;;;;;;9.24;100.00;102501.75;5016906;28;20528;-75
2021/11/19 04:31:20;;;;;;;47.53;24.27;;;;;;;9.30;100.00;102495.75;5016477;28;20072;-75
2021/11/19 04:33:47;;;;;;;44.20;24.80;;;;;;;9.28;100.00;102508.75;5024170;28;20045;-76
2021/11/19 04:36:16;;;;;;;46.28;24.65;;;;;;;9.28;100.00;102506.13;5017532;28;20046;-75
2021/11/19 04:38:43;;;;;;;47.90;25.30;;;;;;;9.25;100.00;102508.69;5024148;28;20053;-74
2021/11/19 04:41:10;;;;;;;48.35;25.73;;;;;;;9.23;100.00;102504.31;5021821;28;20065;-76
2021/11/19 04:43:37;;;;;;;49.30;26.05;;;;;;;9.25;100.00;102500.88;5025053;28;20099;-75
2021/11/19 04:46:05;;;;;;;46.75;25.45;;;;;;;9.24;100.00;102506.94;5015687;28;20072;-75
2021/11/19 04:48:34;;;;;;;44.60;25.90;;;;;;;9.33;100.00;102499.28;5018157;28;20049;-76
2021/11/19 04:51:02;;;;;;;44.63;26.20;;;;;;;9.26;100.00;102500.03;5020430;28;20080;-75
2021/11/19 04:53:31;;;;;;;51.20;27.58;;;;;;;9.35;100.00;102494.13;5021956;28;20045;-76
2021/11/19 04:55:59;;;;;;;47.60;27.10;;;;;;;9.26;100.00;102500.03;5019578;28;20590;-75
2021/11/19 04:58:26;;;;;;;46.28;27.45;;;;;;;9.31;100.00;102503.59;5021147;28;20527;-75
2021/11/19 05:00:58;;;;;;;48.97;26.80;;;;;;;9.28;100.00;102498.34;5025929;28;20217;-76
2021/11/19 05:03:25;;;;;;;54.10;30.13;;;;;;;9.25;100.00;102495.69;5027728;28;20462;-75
2021/11/19 05:05:53;;;;;;;51.15;28.27;;;;;;;9.36;100.00;102495.88;5026089;28;20522;-73
2021/11/19 05:08:20;;;;;;;52.35;29.67;;;;;;;9.30;100.00;102494.06;5024954;28;20041;-77
2021/11/19 05:10:51;;;;;;;51.63;28.92;;;;;;;9.29;100.00;102499.22;5025962;28;20049;-75
2021/11/19 05:13:19;;;;;;;52.63;29.63;;;;;;;9.31;100.00;102495.81;5025344;28;20594;-76
2021/11/19 05:15:48;;;;;;;56.90;30.73;;;;;;;9.36;100.00;102490.69;5022130;28;20119;-76
2021/11/19 05:18:14;;;;;;;53.42;31.83;;;;;;;9.32;100.00;102494.97;5027560;28;20046;-76
2021/11/19 05:20:41;;;;;;;55.03;32.03;;;;;;;9.32;100.00;102494.97;5026343;28;20534;-76
2021/11/19 05:23:08;;;;;;;55.85;32.22;;;;;;;9.36;100.00;102489.78;5018929;28;20801;-76
2021/11/19 05:25:36;;;;;;;52.83;31.92;;;;;;;9.39;100.00;102495.03;5027333;28;20041;-75
2021/11/19 05:28:04;;;;;;;53.30;33.17;;;;;;;9.40;100.00;102499.38;5024330;28;20446;-75
2021/11/19 05:30:31;;;;;;;58.35;31.67;;;;;;;9.36;100.00;102502.78;5023003;28;20069;-76
2021/11/19 05:32:57;;;;;;;53.95;31.60;;;;;;;9.40;100.00;102501.97;5021721;28;20061;-76
2021/11/19 05:35:25;;;;;;;59.75;34.65;;;;;;;9.39;100.00;102511.47;5015114;28;20103;-76
2021/11/19 05:37:51;;;;;;;59.95;31.58;;;;;;;9.37;100.00;102508.00;5023328;28;20419;-75
2021/11/19 05:40:20;;;;;;;63.67;31.17;;;;;;;9.34;100.00;102501.03;5025578;28;20438;-75
2021/11/19 05:42:47;;;;;;;51.20;31.15;;;;;;;9.34;100.00;102511.41;5019613;28;20060;-75
2021/11/19 05:45:16;;;;;;;51.22;30.00;;;;;;;9.42;100.00;102505.47;5011893;28;20057;-75
2021/11/19 05:47:43;;;;;;;58.15;32.28;;;;;;;9.32;100.00;102507.94;5019976;28;20049;-75
2021/11/19 05:50:11;;;;;;;54.55;30.73;;;;;;;9.34;100.00;102505.34;5019101;28;20427;-75
2021/11/19 05:52:38;;;;;;;58.05;32.15;;;;;;;9.32;100.00;102509.66;5017848;28;20062;-75
2021/11/19 05:55:06;;;;;;;56.45;30.98;;;;;;;9.34;100.00;102510.56;5026221;28;20049;-76
2021/11/19 05:57:33;;;;;;;55.50;31.70;;;;;;;9.40;100.00;102500.25;5015987;28;20045;-75
2021/11/19 05:59:59;;;;;;;57.05;31.45;;;;;;;9.27;100.00;102507.00;5019190;28;20037;-76
2021/11/19 06:02:27;;;;;;;61.55;33.33;;;;;;;9.39;100.00;102501.09;5024333;28;20053;-72
2021/11/19 06:04:54;;;;;;;59.80;30.73;;;;;;;9.36;100.00;102503.66;5015550;28;20100;-76
2021/11/19 06:07:22;;;;;;;55.00;30.75;;;;;;;9.34;100.00;102502.75;5024315;28;20049;-76
2021/11/19 06:09:50;;;;;;;56.42;30.92;;;;;;;9.32;100.00;102505.34;5020949;28;20127;-76
2021/11/19 06:12:20;;;;;;;61.78;32.13;;;;;;;9.28;100.00;102503.53;5016618;28;20046;-75
2021/11/19 06:14:49;;;;;;;56.22;32.20;;;;;;;9.40;100.00;102508.03;5018825;28;20053;-76
2021/11/19 06:17:19;;;;;;;54.42;31.73;;;;;;;9.34;100.00;102511.41;5022728;28;20057;-76
2021/11/19 06:19:53;;;;;;;54.40;32.25;;;;;;;9.34;100.00;102514.00;5022084;28;20152;-75
2021/11/19 06:22:23;;;;;;;56.80;32.55;;;;;;;9.42;100.00;102508.94;5022787;28;20065;-75
2021/11/19 06:24:52;;;;;;;56.83;31.33;;;;;;;9.57;100.00;102515.22;5019535;28;20095;-76
2021/11/19 06:27:25;;;;;;;67.47;33.58;;;;;;;9.62;100.00;102519.63;5023776;28;20057;-72
2021/11/19 06:29:53;;;;;;;64.22;32.75;;;;;;;9.70;100.00;102518.84;5024133;28;20053;-75
2021/11/19 06:32:20;;;;;;;51.17;31.40;;;;;;;9.74;100.00;102518.00;5023687;28;20057;-75
2021/11/19 06:34:49;;;;;;;54.08;31.05;;;;;;;9.67;100.00;102521.38;5025379;28;20132;-75
2021/11/19 06:37:15;;;;;;;60.42;31.13;;;;;;;9.74;100.00;102524.09;5014482;28;20048;-75
2021/11/19 06:39:43;;;;;;;47.63;30.98;;;;;;;9.83;100.00;102517.25;5017239;28;20046;-77
2021/11/19 06:42:10;;;;;;;50.58;31.08;;;;;;;9.78;100.00;102523.25;5024053;28;20519;-76
2021/11/19 06:44:37;;;;;;;48.50;30.70;;;;;;;9.84;100.00;102524.22;5020917;28;20050;-75
2021/11/19 06:47:05;;;;;;;49.80;31.25;;;;;;;9.84;100.00;102525.06;5021076;28;20045;-75
2021/11/19 06:49:32;;;;;;;52.45;29.67;;;;;;;9.87;100.00;102526.84;5027680;28;20053;-76
2021/11/19 06:52:00;;;;;;;50.95;30.55;;;;;;;9.88;100.00;102528.59;5020777;28;20045;-76
2021/11/19 06:54:27;;;;;;;42.78;29.52;;;;;;;9.88;100.00;102537.25;5019184;28;20515;-74
2021/11/19 06:56:54;;;;;;;48.30;28.88;;;;;;;9.85;100.00;102532.00;5031505;28;20103;-75
2021/11/19 06:59:20;;;;;;;48.60;29.42;;;;;;;9.87;100.00;102535.50;5029715;28;20546;-75
2021/11/19 07:01:47;;;;;;;46.85;29.35;;;;;;;9.84;100.00;102529.41;5016603;28;20112;-76
2021/11/19 07:04:14;;;;;;;46.92;29.17;;;;;;;9.84;100.00;102532.88;5026309;28;20111;-76
2021/11/19 07:06:41;;;;;;;45.65;29.73;;;;;;;9.79;100.00;102532.81;5014724;28;20107;-76
2021/11/19 07:09:12;;;;;;;49.75;29.17;;;;;;;9.78;100.00;102528.47;5022578;28;20049;-75
2021/11/19 07:11:39;;;;;;;50.45;28.27;;;;;;;9.74;100.00;102528.41;5024403;28;20466;-75
2021/11/19 07:14:06;;;;;;;46.60;29.77;;;;;;;9.70;100.00;102540.47;5027863;28;20418;-75
2021/11/19 07:16:34;;;;;;;47.35;29.67;;;;;;;9.65;100.00;102548.22;5027739;28;20133;-75
2021/11/19 07:19:00;;;;;;;49.50;29.52;;;;;;;9.68;100.00;102549.13;5024666;28;20056;-75
2021/11/19 07:21:29;;;;;;;53.85;29.40;;;;;;;9.75;100.00;102550.94;5023900;28;20050;-74
2021/11/19 07:23:58;;;;;;;44.42;27.20;;;;;;;9.73;100.00;102544.88;5027671;28;20112;-75
2021/11/19 07:26:27;;;;;;;52.97;28.63;;;;;;;9.72;100.00;102556.97;5027434;28;20045;-74
2021/11/19 07:28:56;;;;;;;42.42;27.42;;;;;;;9.69;100.00;102558.66;5032466;28;20073;-75
2021/11/19 07:31:22;;;;;;;47.70;27.70;;;;;;;9.70;100.00;102556.06;5023002;28;20068;-75
2021/11/19 07:33:49;;;;;;;44.03;28.52;;;;;;;9.69;100.00;102556.06;5027882;28;20053;-74
2021/11/19 07:36:18;;;;;;;45.28;28.13;;;;;;;9.62;100.00;102558.59;5023471;28;20056;-74
2021/11/19 07:38:46;;;;;;;45.88;26.80;;;;;;;9.61;100.00;102563.75;5024807;28;20053;-74
2021/11/19 07:41:15;;;;;;;45.17;27.00;;;;;;;9.65;100.00;102565.53;5022908;28;20049;-75
2021/11/19 07:43:43;;;;;;;39.28;25.00;;;;;;;9.61;100.00;102564.63;5029162;28;20054;-76
2021/11/19 07:46:11;;;;;;;42.08;25.75;;;;;;;9.63;100.00;102568.09;5024479;28;20061;-76
2021/11/19 07:48:40;;;;;;;44.80;26.95;;;;;;;9.72;100.00;102571.72;5026214;28;20114;-76
2021/11/19 07:51:10;;;;;;;44.22;26.10;;;;;;;9.70;100.00;102568.22;5022757;28;20049;-75
2021/11/19 07:53:37;;;;;;;44.00;26.75;;;;;;;9.65;100.00;102575.94;5023800;28;20057;-76
2021/11/19 07:56:05;;;;;;;40.53;25.75;;;;;;;9.68;100.00;102572.50;5025184;28;20805;-76
2021/11/19 07:58:32;;;;;;;47.97;25.77;;;;;;;9.76;100.00;102576.06;5026913;28;20104;-76
2021/11/19 08:01:01;;;;;;;40.83;24.70;;;;;;;9.78;100.00;102577.84;5026302;28;20050;-76
2021/11/19 08:03:28;;;;;;;37.13;23.58;;;;;;;10.31;100.00;102580.25;5022917;28;20094;-75
2021/11/19 08:05:58;;;;;;;35.97;22.00;;;;;;;10.35;100.00;102579.41;5023618;28;20050;-75
2021/11/19 08:08:26;;;;;;;33.58;21.27;;;;;;;10.47;100.00;102577.00;5023120;28;20052;-76
2021/11/19 08:10:53;;;;;;;33.20;21.13;;;;;;;10.65;100.00;102580.63;5028826;28;20096;-75
2021/11/19 08:13:20;;;;;;;33.65;22.35;;;;;;;10.80;100.00;102573.00;5023860;28;20049;-75
2021/11/19 08:15:48;;;;;;;32.88;22.00;;;;;;;10.75;100.00;102572.06;5022553;28;20057;-75
2021/11/19 08:18:21;;;;;;;31.60;20.65;;;;;;;10.68;100.00;102567.66;5022865;28;20041;-73
2021/11/19 08:20:49;;;;;;;35.63;22.77;;;;;;;10.54;100.00;102573.59;5020263;28;20076;-75
2021/11/19 08:23:19;;;;;;;31.00;21.73;;;;;;;10.44;100.00;102574.34;5020627;28;20056;-74
2021/11/19 08:25:46;;;;;;;35.13;22.98;;;;;;;10.36;100.00;102563.84;5020350;28;20065;-76
2021/11/19 08:28:14;;;;;;;35.60;22.00;;;;;;;10.27;100.00;102564.59;5022459;28;20567;-75
2021/11/19 08:30:47;;;;;;;38.20;24.35;;;;;;;10.29;100.00;102568.94;5024275;28;20045;-74
2021/11/19 08:33:17;;;;;;;39.28;23.75;;;;;;;10.24;100.00;102574.97;5024783;28;20107;-75
2021/11/19 08:35:44;;;;;;;38.00;25.25;;;;;;;10.12;100.00;102564.44;5026912;28;20399;-75
2021/11/19 08:38:14;;;;;;;40.15;23.98;;;;;;;10.12;100.00;102569.63;5018190;28;20091;-74
2021/11/19 08:40:44;;;;;;;37.15;24.52;;;;;;;10.09;100.00;102573.03;5022932;28;20049;-74
2021/11/19 08:43:12;;;;;;;38.53;23.60;;;;;;;10.10;100.00;102569.59;5021841;28;20144;-74
2021/11/19 08:45:39;;;;;;;35.08;23.40;;;;;;;10.12;100.00;102567.03;5022412;28;20057;-74
2021/11/19 08:48:06;;;;;;;40.28;25.40;;;;;;;10.14;100.00;102575.69;5027061;28;20052;-74
2021/11/19 08:50:39;;;;;;;37.90;24.17;;;;;;;10.19;100.00;102584.44;5028737;28;20041;-74
2021/11/19 08:53:08;;;;;;;37.67;24.60;;;;;;;10.29;100.00;102581.94;5025790;28;20053;-74
2021/11/19 08:55:35;;;;;;;42.55;25.83;;;;;;;10.23;100.00;102586.22;5022187;28;20045;-74
2021/11/19 08:58:01;;;;;;;36.55;23.55;;;;;;;10.12;100.00;102582.63;5026907;28;20070;-74
2021/11/19 09:00:33;;;;;;;41.05;25.13;;;;;;;10.11;100.00;102588.69;5019944;28;20045;-74
2021/11/19 09:03:00;;;;;;;40.22;24.48;;;;;;;10.14;100.00;102583.50;5028007;28;20056;-74
2021/11/19 09:05:28;;;;;;;42.03;25.10;;;;;;;10.19;100.00;102584.44;5027640;28;20099;-73
2021/11/19 09:07:55;;;;;;;34.80;23.67;;;;;;;10.25;100.00;102581.91;5022307;28;20045;-73
2021/11/19 09:10:23;;;;;;;38.88;23.52;;;;;;;10.18;100.00;102590.50;5020025;28;20045;-74
2021/11/19 09:12:51;;;;;;;39.03;23.27;;;;;;;10.31;100.00;102582.84;5026714;28;20550;-74
2021/11/19 09:15:20;;;;;;;39.67;25.20;;;;;;;10.18;100.00;102587.03;5020088;28;20046;-74
2021/11/19 09:18:09;;;;;;;41.67;25.50;;;;;;;10.13;100.00;102584.38;5026136;28;20045;-74
2021/11/19 09:20:47;;;;;;;42.28;25.40;;;;;;;10.15;100.00;102582.66;5022292;28;20061;-75
2021/11/19 09:23:18;;;;;;;42.20;25.77;;;;;;;10.20;100.00;102577.50;5018360;28;20042;-74
2021/11/19 09:25:50;;;;;;;40.33;24.73;;;;;;;10.21;100.00;102581.84;5027449;28;20428;-74
2021/11/19 09:28:19;;;;;;;40.28;25.35;;;;;;;10.19;100.00;102589.66;5020883;28;20049;-73
2021/11/19 09:30:48;;;;;;;41.90;26.85;;;;;;;10.18;100.00;102581.84;5027406;28;20458;-73
2021/11/19 09:33:17;;;;;;;46.97;27.35;;;;;;;10.17;100.00;102585.28;5023864;28;20164;-73
2021/11/19 09:35:44;;;;;;;39.85;25.58;;;;;;;10.22;100.00;102589.69;5027267;28;20056;-74
2021/11/19 09:38:13;;;;;;;41.28;26.45;;;;;;;10.33;100.00;102592.41;5022166;28;20049;-74
2021/11/19 09:40:44;;;;;;;44.38;26.55;;;;;;;10.43;100.00;102596.03;5026784;28;20045;-74
2021/11/19 09:43:22;;;;;;;43.35;26.70;;;;;;;10.47;100.00;102590.00;5027501;28;20061;-73
2021/11/19 09:46:28;;;;;;;44.20;26.63;;;;;;;10.46;100.00;102590.84;5021754;28;20076;-72
2021/11/19 09:49:07;;;;;;;43.90;27.60;;;;;;;10.47;100.00;102591.75;5026327;28;20053;-75
2021/11/19 09:52:06;;;;;;;42.47;26.73;;;;;;;10.54;100.00;102596.16;5021953;28;20492;-75
2021/11/19 09:55:05;;;;;;;51.42;27.15;;;;;;;10.48;100.00;102591.75;5026102;28;20050;-75
2021/11/19 09:57:57;;;;;;;45.60;28.38;;;;;;;10.53;100.00;102590.06;5017650;28;20746;-74
2021/11/19 10:00:35;;;;;;;45.75;28.92;;;;;;;10.55;100.00;102603.97;5016447;28;20145;-75
2021/11/19 10:03:36;;;;;;;46.95;28.02;;;;;;;10.50;100.00;102602.16;5024790;28;20052;-75
2021/11/19 10:06:08;;;;;;;40.60;25.75;;;;;;;10.56;100.00;102602.25;5029257;28;20391;-74
2021/11/19 10:08:46;;;;;;;50.72;27.17;;;;;;;10.51;100.00;102607.41;5022831;28;20057;-75
2021/11/19 10:11:19;;;;;;;46.15;28.48;;;;;;;10.51;100.00;102599.59;5026925;28;20771;-75
2021/11/19 10:14:17;;;;;;;48.67;27.58;;;;;;;10.51;100.00;102602.19;5023798;28;20489;-75
2021/11/19 10:16:57;;;;;;;52.95;28.45;;;;;;;10.54;100.00;102601.34;5024063;28;20049;-75
2021/11/19 10:19:27;;;;;;;48.33;28.38;;;;;;;10.61;100.00;102605.75;5027635;28;20050;-74
2021/11/19 10:22:03;;;;;;;46.85;28.83;;;;;;;10.57;100.00;102604.00;5025292;28;20041;-74
2021/11/19 10:24:38;;;;;;;50.05;29.45;;;;;;;10.62;100.00;102609.25;5023451;28;20046;-74
2021/11/19 10:27:06;;;;;;;50.58;29.00;;;;;;;10.64;100.00;102602.31;5024870;28;20049;-74
2021/11/19 10:29:37;;;;;;;51.67;30.30;;;;;;;10.64;100.00;102608.41;5026218;28;20087;-74
2021/11/19 10:32:05;;;;;;;43.60;27.48;;;;;;;10.83;100.00;102608.59;5022091;28;20046;-74
2021/11/19 10:34:38;;;;;;;48.40;28.13;;;;;;;10.84;100.00;102608.59;5026738;28;20526;-74
2021/11/19 10:37:28;;;;;;;43.60;26.73;;;;;;;10.89;100.00;102601.72;5023191;28;20061;-74
2021/11/19 10:40:15;;;;;;;51.25;29.30;;;;;;;10.89;100.00;102606.03;5024098;28;20116;-74
2021/11/19 10:43:10;;;;;;;44.42;25.65;;;;;;;10.84;100.00;102600.78;5026299;28;20538;-76
2021/11/19 10:45:54;;;;;;;48.85;27.90;;;;;;;10.91;100.00;102603.47;5025738;28;20053;-75
2021/11/19 10:48:52;;;;;;;45.75;26.98;;;;;;;10.85;100.00;102609.47;5024731;28;20061;-75
2021/11/19 10:51:46;;;;;;;45.50;26.67;;;;;;;10.89;100.00;102606.03;5022330;28;20041;-74
2021/11/19 10:55:02;;;;;;;50.65;28.20;;;;;;;10.87;100.00;102602.56;5023158;28;20050;-74
2021/11/19 10:58:01;;;;;;;49.25;27.63;;;;;;;10.88;100.00;102599.97;5022844;28;20514;-75
2021/11/19 11:00:48;;;;;;;47.13;27.63;;;;;;;10.86;100.00;102604.28;5024296;28;20099;-74
2021/11/19 11:03:21;;;;;;;44.83;26.13;;;;;;;10.81;100.00;102592.06;5021252;28;20045;-74
2021/11/19 11:05:58;;;;;;;46.22;27.70;;;;;;;10.91;100.00;102593.91;5027098;28;20140;-75
2021/11/19 11:08:27;;;;;;;41.78;25.10;;;;;;;10.95;100.00;102595.69;5021552;28;20562;-74
2021/11/19 11:10:56;;;;;;;43.25;25.75;;;;;;;10.95;100.00;102598.31;5023449;28;20056;-75
2021/11/19 11:13:27;;;;;;;47.47;26.42;;;;;;;10.97;100.00;102594.00;5027942;28;20045;-75
2021/11/19 11:15:58;;;;;;;49.40;27.38;;;;;;;10.99;100.00;102597.44;5021065;28;20066;-75
2021/11/19 11:18:29;;;;;;;44.92;26.30;;;;;;;11.06;100.00;102594.91;5022608;28;20046;-74
2021/11/19 11:21:08;;;;;;;49.75;27.23;;;;;;;11.01;100.00;102590.53;5026314;28;20147;-75